Strona główna
METAR-TAF:

METAR-TAF

Lotnisko :

Turyn, Włochy

Szerokość geograficzna: 45-05-20N, Długość geograficzna: 007-36-20E, wysokość: 288 m

Aktualna obserwacja pogody

Raport powstał 1 godzina i 17 minut temu, godzina 10:50 UTC
Wiatr 3 kt od południe
Temperatura 8°C
Wilgotność 76%
Ciśnienie 1021 hPa
Widzialność: 4500 m
Przerywane chmury na wysokości 1800 ft
zamglenie

METAR: LIMA 161050Z 19003KT 4500 BR BKN018 08/04 Q1021

czas: 13:07 (12:07 UTC)


TAF: brakujący

Obserwacja i prognoza pogody dla ponad 4000 lotnisk (raport METAR i TAF).

Dostępne stacje oznaczono żółtymi i czerwonymi punktami na mapie.

Najedź kursorem aby zobaczyć nazwę stacji.

Kliknij aby zobaczyć obserwacje i prognozy pogody.

Aby zmienić mapę: kliknij na zielony przycisk z czarnym krzyżykiem, aby powiększyć; na zielony przycisk z myślnikiem, aby pomniejszyć; na zielone strzałki, aby przejść do map sąsiednich.


METAR-TAF: